createdAt,value
2022-08-02T00:00:55.370Z,23.71
2022-08-02T00:03:23.427Z,23.87
2022-08-02T00:05:53.013Z,23.62
2022-08-02T00:08:20.702Z,23.58
2022-08-02T00:10:47.765Z,23.65
2022-08-02T00:13:14.607Z,23.69
2022-08-02T00:15:41.660Z,23.65
2022-08-02T00:18:08.580Z,23.69
2022-08-02T00:20:35.450Z,23.60
2022-08-02T00:23:02.250Z,23.58
2022-08-02T00:25:29.234Z,23.44
2022-08-02T00:27:56.064Z,23.53
2022-08-02T00:30:22.878Z,23.43
2022-08-02T00:32:49.925Z,23.52
2022-08-02T00:35:16.901Z,23.47
2022-08-02T00:37:43.878Z,23.46
2022-08-02T00:40:10.991Z,23.47
2022-08-02T00:42:38.439Z,23.44
2022-08-02T00:45:05.522Z,23.44
2022-08-02T00:47:32.349Z,23.48
2022-08-02T00:49:59.169Z,23.56
2022-08-02T00:52:26.193Z,23.35
2022-08-02T00:54:53.042Z,23.44
2022-08-02T00:57:19.903Z,23.45
2022-08-02T00:59:46.793Z,23.37
2022-08-02T01:02:14.249Z,23.47
2022-08-02T01:04:41.565Z,23.42
2022-08-02T01:07:13.928Z,23.56
2022-08-02T01:09:44.627Z,23.49
2022-08-02T01:12:12.479Z,23.41
2022-08-02T01:14:42.435Z,23.33
2022-08-02T01:17:18.969Z,23.41
2022-08-02T01:20:03.772Z,23.46
2022-08-02T01:23:06.070Z,23.47
2022-08-02T01:25:45.296Z,23.42
2022-08-02T01:28:44.553Z,23.32
2022-08-02T01:31:16.596Z,23.23
2022-08-02T01:33:46.258Z,23.35
2022-08-02T01:36:14.729Z,23.28
2022-08-02T01:38:47.353Z,23.24
2022-08-02T01:41:17.016Z,23.27
2022-08-02T01:43:45.176Z,23.30
2022-08-02T01:46:13.756Z,23.32
2022-08-02T01:48:41.243Z,23.31
2022-08-02T01:51:08.947Z,23.24
2022-08-02T01:53:36.215Z,23.25
2022-08-02T01:56:03.734Z,23.29
2022-08-02T01:58:31.964Z,23.21
2022-08-02T02:00:59.990Z,23.16
2022-08-02T02:03:27.681Z,23.27
2022-08-02T02:05:57.366Z,23.26
2022-08-02T02:08:27.759Z,23.16
2022-08-02T02:10:56.557Z,23.21
2022-08-02T02:13:28.734Z,23.19
2022-08-02T02:16:02.805Z,23.21
2022-08-02T02:18:31.442Z,23.23
2022-08-02T02:20:58.373Z,23.34
2022-08-02T02:23:25.906Z,23.23
2022-08-02T02:25:55.663Z,23.26
2022-08-02T02:28:30.636Z,23.19
2022-08-02T02:31:24.043Z,23.19
2022-08-02T02:33:53.235Z,23.24
2022-08-02T02:36:21.777Z,23.21
2022-08-02T02:38:48.967Z,23.25
2022-08-02T02:41:16.982Z,23.35
2022-08-02T02:43:44.453Z,23.33
2022-08-02T02:46:12.527Z,23.22
2022-08-02T02:48:40.403Z,23.11
2022-08-02T02:51:14.180Z,23.17
2022-08-02T02:54:30.977Z,23.23
2022-08-02T02:56:28.931Z,23.16
2022-08-02T02:58:56.219Z,23.17
2022-08-02T03:01:55.581Z,23.19
2022-08-02T03:04:17.385Z,23.11
2022-08-02T03:06:44.285Z,22.95
2022-08-02T03:09:11.647Z,23.05
2022-08-02T03:11:38.803Z,23.08
2022-08-02T03:14:08.875Z,23.08
2022-08-02T03:16:41.991Z,23.03
2022-08-02T03:19:08.770Z,23.00
2022-08-02T03:21:35.470Z,22.96
2022-08-02T03:24:02.172Z,23.07
2022-08-02T03:26:29.014Z,22.94
2022-08-02T03:28:55.804Z,22.93
2022-08-02T03:31:22.497Z,22.83
2022-08-02T03:33:49.634Z,22.91
2022-08-02T03:36:19.570Z,22.80
2022-08-02T03:38:46.550Z,22.77
2022-08-02T03:41:14.062Z,22.83
2022-08-02T03:43:41.350Z,22.89
2022-08-02T03:46:08.933Z,22.97
2022-08-02T03:48:36.968Z,22.98
2022-08-02T03:51:03.901Z,22.88
2022-08-02T03:53:31.343Z,22.95
2022-08-02T03:56:15.793Z,22.96
2022-08-02T03:58:45.819Z,23.05
2022-08-02T04:01:15.998Z,23.12
2022-08-02T04:03:42.835Z,23.09
2022-08-02T04:06:09.613Z,23.10
2022-08-02T04:08:38.479Z,23.01
2022-08-02T04:11:24.563Z,23.03
2022-08-02T04:13:51.545Z,22.90
2022-08-02T04:16:22.880Z,22.87
2022-08-02T04:19:01.518Z,22.94
2022-08-02T04:21:48.739Z,22.78
2022-08-02T04:24:19.178Z,22.80
2022-08-02T04:26:48.997Z,22.71
2022-08-02T04:29:17.561Z,22.72
2022-08-02T04:31:44.495Z,22.74
2022-08-02T04:34:14.973Z,22.70
2022-08-02T04:36:42.802Z,22.67
2022-08-02T04:39:09.671Z,22.76
2022-08-02T04:41:43.960Z,22.53
2022-08-02T04:44:11.674Z,22.60
2022-08-02T04:46:39.113Z,22.60
2022-08-02T04:49:06.063Z,22.63
2022-08-02T04:51:40.063Z,22.61
2022-08-02T04:54:09.529Z,22.57
2022-08-02T04:56:37.302Z,22.53
2022-08-02T04:59:04.014Z,22.62
2022-08-02T05:01:35.964Z,22.65
2022-08-02T05:04:03.131Z,22.56
2022-08-02T05:06:29.793Z,22.65
2022-08-02T05:08:56.504Z,22.48
2022-08-02T05:11:34.739Z,22.71
2022-08-02T05:14:03.850Z,22.61
2022-08-02T05:16:30.568Z,22.49
2022-08-02T05:18:58.382Z,22.44
2022-08-02T05:21:25.234Z,22.25
2022-08-02T05:23:51.858Z,22.39
2022-08-02T05:26:18.583Z,22.23
2022-08-02T05:28:45.211Z,22.30
2022-08-02T05:31:13.424Z,22.33
2022-08-02T05:33:40.720Z,22.33
2022-08-02T05:36:09.573Z,22.24
2022-08-02T05:38:37.840Z,22.36
2022-08-02T05:41:05.012Z,22.39
2022-08-02T05:43:31.692Z,22.48
2022-08-02T05:45:58.422Z,22.43
2022-08-02T05:48:31.197Z,22.39
2022-08-02T05:51:06.942Z,22.32
2022-08-02T05:53:38.132Z,22.30
2022-08-02T05:56:24.339Z,22.29
2022-08-02T05:58:56.734Z,22.22
2022-08-02T06:01:34.456Z,22.20
2022-08-02T06:04:02.248Z,22.06
2022-08-02T06:06:30.162Z,22.12
2022-08-02T06:09:01.331Z,22.05
2022-08-02T06:11:35.296Z,22.14
2022-08-02T06:14:02.935Z,22.20
2022-08-02T06:16:32.112Z,22.19
2022-08-02T06:19:00.467Z,22.17
2022-08-02T06:22:31.551Z,22.11
2022-08-02T06:24:14.202Z,22.13
2022-08-02T06:26:41.485Z,22.09
2022-08-02T06:29:08.434Z,22.12
2022-08-02T06:31:35.711Z,22.06
2022-08-02T06:34:02.465Z,22.25
2022-08-02T06:36:42.351Z,22.27
2022-08-02T06:39:27.149Z,22.31
2022-08-02T06:41:58.670Z,22.31
2022-08-02T06:44:47.054Z,22.21
2022-08-02T06:47:13.250Z,22.32
2022-08-02T06:49:52.879Z,22.27
2022-08-02T06:52:31.483Z,22.24
2022-08-02T06:54:59.204Z,22.32
2022-08-02T06:57:26.012Z,22.29
2022-08-02T06:59:52.686Z,22.22
2022-08-02T07:02:19.475Z,22.30
2022-08-02T07:04:46.206Z,22.28
2022-08-02T07:07:13.013Z,22.26
2022-08-02T07:09:39.706Z,22.26
2022-08-02T07:12:22.826Z,22.24
2022-08-02T07:14:49.458Z,22.18
2022-08-02T07:17:16.346Z,22.29
2022-08-02T07:19:43.142Z,22.28
2022-08-02T07:22:09.864Z,22.38
2022-08-02T07:24:36.523Z,22.45
2022-08-02T07:27:12.020Z,22.48
2022-08-02T07:29:46.573Z,22.46
2022-08-02T07:32:17.291Z,22.45
2022-08-02T07:34:50.438Z,22.52
2022-08-02T07:37:29.827Z,22.50
2022-08-02T07:40:11.899Z,22.52
2022-08-02T07:42:40.438Z,22.52
2022-08-02T07:45:07.246Z,22.52
2022-08-02T07:47:36.497Z,22.52
2022-08-02T07:50:03.309Z,22.72
2022-08-02T07:52:30.004Z,22.78
2022-08-02T07:54:56.613Z,22.68
2022-08-02T07:57:23.246Z,22.64
2022-08-02T07:59:51.139Z,22.66
2022-08-02T08:02:18.463Z,22.65
2022-08-02T08:04:45.129Z,22.65
2022-08-02T08:07:12.106Z,22.64
2022-08-02T08:09:41.914Z,22.63
2022-08-02T08:12:09.467Z,22.70
2022-08-02T08:14:36.694Z,22.67
2022-08-02T08:17:03.787Z,22.62
2022-08-02T08:19:49.923Z,22.67
2022-08-02T08:22:17.584Z,22.69
2022-08-02T08:24:44.342Z,22.67
2022-08-02T08:27:14.873Z,22.72
2022-08-02T08:29:42.585Z,22.74
2022-08-02T08:32:12.802Z,22.74
2022-08-02T08:34:42.858Z,22.81
2022-08-02T08:37:09.609Z,22.83
2022-08-02T08:39:58.219Z,22.83
2022-08-02T08:42:26.106Z,22.82
2022-08-02T08:44:52.843Z,22.88
2022-08-02T08:47:21.119Z,22.89
2022-08-02T08:49:52.333Z,22.91
2022-08-02T08:52:20.353Z,22.91
2022-08-02T08:54:48.594Z,22.94
2022-08-02T08:57:16.034Z,22.99
2022-08-02T08:59:42.824Z,22.89
2022-08-02T09:02:19.607Z,22.92
2022-08-02T09:04:53.561Z,22.89
2022-08-02T09:07:22.437Z,22.90
2022-08-02T09:09:49.124Z,22.92
2022-08-02T09:12:16.211Z,22.93
2022-08-02T09:14:42.913Z,23.00
2022-08-02T09:17:10.447Z,22.96
2022-08-02T09:19:37.306Z,23.00
2022-08-02T09:22:11.277Z,23.02
2022-08-02T09:24:48.470Z,22.96
2022-08-02T09:27:19.380Z,22.96
2022-08-02T09:30:12.258Z,22.96
2022-08-02T09:32:47.156Z,23.03
2022-08-02T09:35:15.442Z,23.00
2022-08-02T09:37:44.536Z,23.04
2022-08-02T09:40:13.698Z,23.07
2022-08-02T09:42:57.767Z,23.12
2022-08-02T09:45:30.074Z,23.13
2022-08-02T09:47:56.695Z,23.16
2022-08-02T09:50:23.377Z,23.21
2022-08-02T09:52:50.084Z,23.19
2022-08-02T09:55:16.858Z,23.19
2022-08-02T09:57:43.598Z,23.19
2022-08-02T10:00:26.975Z,23.22
2022-08-02T10:03:19.308Z,23.25
2022-08-02T10:05:56.065Z,23.26
2022-08-02T10:08:34.204Z,23.31
2022-08-02T10:11:05.260Z,23.33
2022-08-02T10:13:33.400Z,23.31
2022-08-02T10:16:02.764Z,23.33
2022-08-02T10:18:38.916Z,23.35
2022-08-02T10:21:07.824Z,23.35
2022-08-02T10:23:36.045Z,23.40
2022-08-02T10:26:03.610Z,23.37
2022-08-02T10:28:33.207Z,23.38
2022-08-02T10:31:01.391Z,23.36
2022-08-02T10:33:33.204Z,23.39
2022-08-02T10:36:04.663Z,23.40
2022-08-02T10:38:34.371Z,23.42
2022-08-02T10:41:01.152Z,23.40
2022-08-02T10:43:36.670Z,23.44
2022-08-02T10:46:21.752Z,23.42
2022-08-02T10:49:36.274Z,23.46
2022-08-02T10:51:54.976Z,23.51
2022-08-02T10:54:23.051Z,23.53
2022-08-02T10:56:50.912Z,23.54
2022-08-02T10:59:26.825Z,23.56
2022-08-02T11:02:01.298Z,23.59
2022-08-02T11:04:36.841Z,23.54
2022-08-02T11:07:08.834Z,23.60
2022-08-02T11:09:35.615Z,23.61
2022-08-02T11:12:06.262Z,23.61
2022-08-02T11:14:34.373Z,23.61
2022-08-02T11:17:03.581Z,23.61
2022-08-02T11:19:30.200Z,23.61
2022-08-02T11:22:02.860Z,23.64
2022-08-02T11:24:29.643Z,23.60
2022-08-02T11:26:56.656Z,23.63
2022-08-02T11:29:31.863Z,23.63
2022-08-02T11:32:05.449Z,23.64
2022-08-02T11:34:36.749Z,23.64
2022-08-02T11:37:05.288Z,23.65
2022-08-02T11:39:32.042Z,23.68
2022-08-02T11:41:59.939Z,23.71
2022-08-02T11:44:30.413Z,23.68
2022-08-02T11:47:01.403Z,23.72
2022-08-02T11:49:29.276Z,23.73
2022-08-02T11:52:06.632Z,23.81
2022-08-02T11:54:35.603Z,23.82
2022-08-02T11:57:19.399Z,23.84
2022-08-02T11:59:48.393Z,23.86
2022-08-02T12:02:16.237Z,23.83
2022-08-02T12:04:43.006Z,23.85
2022-08-02T12:07:11.123Z,23.84
2022-08-02T12:09:41.053Z,23.90
2022-08-02T12:12:08.025Z,23.89
2022-08-02T12:14:41.864Z,23.94
2022-08-02T12:17:27.008Z,23.94
2022-08-02T12:19:54.134Z,24.03
2022-08-02T12:22:27.328Z,24.07
2022-08-02T12:24:56.007Z,24.07
2022-08-02T12:27:29.890Z,24.08
2022-08-02T12:30:05.767Z,24.19
2022-08-02T12:32:32.714Z,24.16
2022-08-02T12:35:08.456Z,24.22
2022-08-02T12:37:35.970Z,24.20
2022-08-02T12:40:25.624Z,24.21
2022-08-02T12:42:54.826Z,24.29
2022-08-02T12:45:21.930Z,24.31
2022-08-02T12:47:49.573Z,24.29
2022-08-02T12:50:21.201Z,24.32
2022-08-02T12:52:51.734Z,24.36
2022-08-02T12:55:24.202Z,24.38
2022-08-02T12:57:51.974Z,24.39
2022-08-02T13:00:44.721Z,24.35
2022-08-02T13:04:09.662Z,24.31
2022-08-02T13:06:11.932Z,24.32
2022-08-02T13:08:46.085Z,24.33
2022-08-02T13:11:12.881Z,24.32
2022-08-02T13:13:39.530Z,24.31
2022-08-02T13:16:06.523Z,24.31
2022-08-02T13:18:33.355Z,24.35
2022-08-02T13:21:00.105Z,24.41
2022-08-02T13:23:54.396Z,24.40
2022-08-02T13:26:14.038Z,24.42
2022-08-02T13:28:42.963Z,24.43
2022-08-02T13:31:35.514Z,24.46
2022-08-02T13:33:57.367Z,24.44
2022-08-02T13:36:24.131Z,24.48
2022-08-02T13:38:50.857Z,24.50
2022-08-02T13:41:17.472Z,24.52
2022-08-02T13:43:54.246Z,24.54
2022-08-02T13:46:28.537Z,24.54
2022-08-02T13:48:56.383Z,24.52
2022-08-02T13:51:23.198Z,24.60
2022-08-02T13:53:49.845Z,24.61
2022-08-02T13:56:16.553Z,24.60
2022-08-02T13:58:43.374Z,24.60
2022-08-02T14:01:10.196Z,24.63
2022-08-02T14:04:07.780Z,24.60
2022-08-02T14:06:23.664Z,24.60
2022-08-02T14:08:50.306Z,24.60
2022-08-02T14:11:16.984Z,24.59
2022-08-02T14:13:43.897Z,24.63
2022-08-02T14:16:10.810Z,24.63
2022-08-02T14:18:37.865Z,24.68
2022-08-02T14:21:04.691Z,24.70
2022-08-02T14:23:49.578Z,24.77
2022-08-02T14:26:27.612Z,24.75
2022-08-02T14:28:54.698Z,24.77
2022-08-02T14:31:21.378Z,24.75
2022-08-02T14:33:48.100Z,24.81
2022-08-02T14:36:15.032Z,24.81
2022-08-02T14:38:53.985Z,24.85
2022-08-02T14:41:20.631Z,24.83
2022-08-02T14:44:05.407Z,24.85
2022-08-02T14:46:32.918Z,24.84
2022-08-02T14:49:02.401Z,24.86
2022-08-02T14:51:30.125Z,24.87
2022-08-02T14:54:02.386Z,24.90
2022-08-02T14:56:30.653Z,24.92
2022-08-02T14:58:57.741Z,24.92
2022-08-02T15:01:26.186Z,24.95
2022-08-02T15:03:53.404Z,24.90
2022-08-02T15:06:20.152Z,24.94
2022-08-02T15:08:46.797Z,24.94
2022-08-02T15:11:13.551Z,24.93
2022-08-02T15:13:42.772Z,24.97
2022-08-02T15:16:09.768Z,24.95
2022-08-02T15:18:36.475Z,24.94
2022-08-02T15:21:18.957Z,24.91
2022-08-02T15:23:50.382Z,24.95
2022-08-02T15:26:17.061Z,24.97
2022-08-02T15:28:43.712Z,24.97
2022-08-02T15:31:10.919Z,24.98
2022-08-02T15:33:50.206Z,24.96
2022-08-02T15:36:17.310Z,24.98
2022-08-02T15:38:45.905Z,25.03
2022-08-02T15:41:12.555Z,24.97
2022-08-02T15:44:00.003Z,24.98
2022-08-02T15:46:32.107Z,24.97
2022-08-02T15:49:01.842Z,24.97
2022-08-02T15:51:28.581Z,24.99
2022-08-02T15:53:55.182Z,24.97
2022-08-02T15:56:22.126Z,25.01
2022-08-02T15:58:54.010Z,24.99
2022-08-02T16:01:23.825Z,25.04
2022-08-02T16:03:50.583Z,25.00
2022-08-02T16:06:17.544Z,24.96
2022-08-02T16:08:53.552Z,24.92
2022-08-02T16:11:21.798Z,24.96
2022-08-02T16:13:53.803Z,24.96
2022-08-02T16:16:21.736Z,24.95
2022-08-02T16:18:48.427Z,24.99
2022-08-02T16:21:15.237Z,24.95
2022-08-02T16:23:58.760Z,24.90
2022-08-02T16:26:29.697Z,24.92
2022-08-02T16:28:57.294Z,24.91
2022-08-02T16:31:24.176Z,24.94
2022-08-02T16:33:55.909Z,24.96
2022-08-02T16:36:23.687Z,24.95
2022-08-02T16:38:50.472Z,24.98
2022-08-02T16:41:17.186Z,24.96
2022-08-02T16:43:43.847Z,24.93
2022-08-02T16:46:10.672Z,24.96
2022-08-02T16:48:37.451Z,24.96
2022-08-02T16:51:04.602Z,24.99
2022-08-02T16:53:37.123Z,24.97
2022-08-02T16:56:18.267Z,24.96
2022-08-02T16:58:45.717Z,24.96
2022-08-02T17:01:14.719Z,24.98
2022-08-02T17:03:56.834Z,24.99
2022-08-02T17:06:26.288Z,25.00
2022-08-02T17:08:56.441Z,25.00
2022-08-02T17:11:23.846Z,25.02
2022-08-02T17:13:51.515Z,25.03
2022-08-02T17:16:20.332Z,25.02
2022-08-02T17:18:53.289Z,25.04
2022-08-02T17:21:20.160Z,25.05
2022-08-02T17:24:05.580Z,25.11
2022-08-02T17:26:34.312Z,25.10
2022-08-02T17:29:14.303Z,25.09
2022-08-02T17:31:44.365Z,25.06
2022-08-02T17:34:13.304Z,25.04
2022-08-02T17:36:44.516Z,25.04
2022-08-02T17:39:16.360Z,25.04
2022-08-02T17:41:49.548Z,25.04
2022-08-02T17:44:37.012Z,25.06
2022-08-02T17:47:04.178Z,25.08
2022-08-02T17:49:31.119Z,25.07
2022-08-02T17:52:49.369Z,25.08
2022-08-02T17:54:44.600Z,25.11
2022-08-02T17:57:14.607Z,25.14
2022-08-02T17:59:42.418Z,25.13
2022-08-02T18:02:11.074Z,25.14
2022-08-02T18:04:38.185Z,25.12
2022-08-02T18:07:09.876Z,25.15
2022-08-02T18:09:37.245Z,25.12
2022-08-02T18:12:10.654Z,25.13
2022-08-02T18:14:37.720Z,25.17
2022-08-02T18:17:15.700Z,25.12
2022-08-02T18:19:55.283Z,25.14
2022-08-02T18:22:26.432Z,25.15
2022-08-02T18:24:53.497Z,25.10
2022-08-02T18:27:20.266Z,25.15
2022-08-02T18:29:47.426Z,25.10
2022-08-02T18:33:54.433Z,25.06
2022-08-02T18:35:14.013Z,25.11
2022-08-02T18:37:42.651Z,25.12
2022-08-02T18:40:12.458Z,25.05
2022-08-02T18:42:39.163Z,25.03
2022-08-02T18:45:06.602Z,24.98
2022-08-02T18:47:33.236Z,24.96
2022-08-02T18:50:00.884Z,24.92
2022-08-02T18:52:31.349Z,24.89
2022-08-02T18:54:58.520Z,24.85
2022-08-02T18:58:17.058Z,24.79
2022-08-02T19:00:13.275Z,24.76
2022-08-02T19:02:40.332Z,24.74
2022-08-02T19:05:07.340Z,24.73
2022-08-02T19:07:50.893Z,24.70
2022-08-02T19:10:19.710Z,24.70
2022-08-02T19:12:46.648Z,24.68
2022-08-02T19:15:18.574Z,24.68
2022-08-02T19:17:55.510Z,24.64
2022-08-02T19:20:24.618Z,24.67
2022-08-02T19:22:53.859Z,24.58
2022-08-02T19:25:21.012Z,24.63
2022-08-02T19:27:54.744Z,24.57
2022-08-02T19:30:22.586Z,24.56
2022-08-02T19:32:58.893Z,24.57
2022-08-02T19:35:29.454Z,24.56
2022-08-02T19:38:05.680Z,24.58
2022-08-02T19:40:32.911Z,24.47
2022-08-02T19:44:21.093Z,24.46
2022-08-02T19:45:49.854Z,24.39
2022-08-02T19:48:29.035Z,24.35
2022-08-02T19:51:00.567Z,24.37
2022-08-02T19:53:48.024Z,24.32
2022-08-02T19:56:20.938Z,24.29
2022-08-02T19:58:49.772Z,24.26
2022-08-02T20:01:23.512Z,24.39
2022-08-02T20:03:54.411Z,24.24
2022-08-02T20:06:29.344Z,24.27
2022-08-02T20:08:59.368Z,24.19
2022-08-02T20:11:27.971Z,24.16
2022-08-02T20:13:55.142Z,24.16
2022-08-02T20:16:27.632Z,24.22
2022-08-02T20:18:55.087Z,24.13
2022-08-02T20:21:36.060Z,24.19
2022-08-02T20:24:07.327Z,24.16
2022-08-02T20:26:35.273Z,24.14
2022-08-02T20:29:03.541Z,24.08
2022-08-02T20:31:30.641Z,24.00
2022-08-02T20:33:57.715Z,24.04
2022-08-02T20:36:27.853Z,24.07
2022-08-02T20:38:55.028Z,23.90
2022-08-02T20:41:22.945Z,24.02
2022-08-02T20:43:50.170Z,23.95
2022-08-02T20:46:17.200Z,23.93
2022-08-02T20:48:44.906Z,23.88
2022-08-02T20:51:12.581Z,23.83
2022-08-02T20:53:54.645Z,23.83
2022-08-02T20:56:22.287Z,23.88
2022-08-02T20:58:52.410Z,23.84
2022-08-02T21:01:21.296Z,23.76
2022-08-02T21:03:58.466Z,23.75
2022-08-02T21:06:28.096Z,23.76
2022-08-02T21:08:55.200Z,23.78
2022-08-02T21:11:25.551Z,23.78
2022-08-02T21:14:07.772Z,23.77
2022-08-02T21:16:47.756Z,23.72
2022-08-02T21:19:14.664Z,23.61
2022-08-02T21:21:41.645Z,23.71
2022-08-02T21:24:11.276Z,23.58
2022-08-02T21:26:39.416Z,23.71
2022-08-02T21:29:07.222Z,23.73
2022-08-02T21:31:36.606Z,23.62
2022-08-02T21:34:21.511Z,23.53
2022-08-02T21:36:51.753Z,23.66
2022-08-02T21:39:19.198Z,23.50
2022-08-02T21:41:47.677Z,23.43
2022-08-02T21:44:15.847Z,23.46
2022-08-02T21:47:02.466Z,23.39
2022-08-02T21:50:09.300Z,23.38
2022-08-02T21:52:16.653Z,23.44
2022-08-02T21:54:45.465Z,23.45
2022-08-02T21:57:15.811Z,23.51
2022-08-02T21:59:46.599Z,23.51
2022-08-02T22:02:14.732Z,23.33
2022-08-02T22:04:47.397Z,23.43
2022-08-02T22:07:16.072Z,23.40
2022-08-02T22:09:45.468Z,23.43
2022-08-02T22:12:17.671Z,23.37
2022-08-02T22:14:49.481Z,23.43
2022-08-02T22:17:21.707Z,23.41
2022-08-02T22:20:08.954Z,23.45
2022-08-02T22:22:39.588Z,23.35
2022-08-02T22:25:14.020Z,23.32
2022-08-02T22:28:11.983Z,23.37
2022-08-02T22:30:40.931Z,23.42
2022-08-02T22:33:33.218Z,23.29
2022-08-02T22:36:00.587Z,23.33
2022-08-02T22:38:27.862Z,23.28
2022-08-02T22:40:54.997Z,23.16
2022-08-02T22:43:22.897Z,23.15
2022-08-02T22:45:50.518Z,23.21
2022-08-02T22:48:23.120Z,23.18
2022-08-02T22:50:51.682Z,23.14
2022-08-02T22:53:35.448Z,23.11
2022-08-02T22:56:03.796Z,23.16
2022-08-02T22:58:31.812Z,23.07
2022-08-02T23:00:59.096Z,23.12
2022-08-02T23:03:25.951Z,23.11
2022-08-02T23:05:52.844Z,23.04
2022-08-02T23:08:25.767Z,22.98
2022-08-02T23:10:52.580Z,23.00
2022-08-02T23:13:19.495Z,23.03
2022-08-02T23:16:04.956Z,23.02
2022-08-02T23:18:50.088Z,23.03
2022-08-02T23:22:02.061Z,23.13
2022-08-02T23:24:04.314Z,22.88
2022-08-02T23:26:31.142Z,22.98
2022-08-02T23:29:00.325Z,22.98
2022-08-02T23:31:31.386Z,22.89
2022-08-02T23:34:03.778Z,22.85
2022-08-02T23:36:32.134Z,22.85
2022-08-02T23:39:00.171Z,22.77
2022-08-02T23:41:27.827Z,22.78
2022-08-02T23:44:12.536Z,22.75
2022-08-02T23:46:46.951Z,22.80
2022-08-02T23:49:14.757Z,22.84
2022-08-02T23:51:43.927Z,22.71
2022-08-02T23:54:11.595Z,22.78
2022-08-02T23:56:39.209Z,22.74
2022-08-02T23:59:08.054Z,22.73
